Historyczne dane pomiarowe

Dodano dane terminowe – wersja testowa.

Dane z okresu 1951-2019

Wersja bazy: 1.34 [2019-03-16, lista zmian], aktualizacja planowana na 2019-04-15

Dane meteo z obszaru Polski uzyskane na podstawie danych udostępnionych przez Instytut Meteorologii i Gospodarki Wodnej – Państwowy Instytut Badawczy.

 

Wybierz Datę:    

       

TemperaturaWilgotnośćZachmurzenieWiatrCiśnienieWidzialnośćZjawiska
 Data    tng td wb rh cc ccl cl cm ch dir g1 g2 mslp ppp      
1999-07-27 00:00:00 14.3--- 10.0 11.975wxwxwx3wx--1021.9 998.8 0.0---wx
1999-07-27 01:00:00 13.8--- 9.4 11.475wxwxwxwx3wx--1022.0 998.9----wx
1999-07-27 02:00:00 13.8--- 8.6 11.071wxwxwxwx3wx--1022.2 999.1----wx
1999-07-27 03:00:00 12.9--- 10.4 11.585wxwxwxwx2wx--1022.3 999.1----wx
1999-07-27 04:00:00 13.2--- 8.8 10.875wxwxwx2wx--1022.3 999.1----wx
1999-07-27 05:00:00 13.4--- 8.8 10.974wxwxwx3wx--1022.4 999.2----wx
1999-07-27 06:00:00 14.0--- 9.1 11.372wxwxwxwx2wx--1022.7 999.6 0.0---wx
1999-07-27 07:00:00 15.3--- 9.1 11.967wxwxwxwx3wx--1022.6 999.6----wx
1999-07-27 08:00:00 16.2--- 9.4 12.464wxwxwx3wx--1022.6 999.6----wx
1999-07-27 09:00:00 18.2--- 8.9 13.055wxwxwxwx3wx--1022.0 999.2----wx
1999-07-27 10:00:00 19.3--- 9.2 13.652wxwxwx2wx--1021.7 999.0----wx
1999-07-27 11:00:00 20.4--- 10.2 14.552wxwxwx3wx--1021.2 998.6----wx
1999-07-27 12:00:00 20.3--- 9.0 13.948wxwxwx3wx--1021.1 998.5 0.0---wx
1999-07-27 13:00:00 20.7--- 7.9 13.644wxwxwx3wx--1021.1 998.5----wx
1999-07-27 14:00:00 21.7--- 6.2 13.337wxwxwx2wx--1020.7 998.2----wx
1999-07-27 15:00:00 22.4--- 6.8 13.836wxwxwx3wx--1020.4 998.0----wx
1999-07-27 16:00:00 21.9--- 6.8 13.638wxwxwx2wx--1020.1 997.6----wx
1999-07-27 17:00:00 21.3--- 7.4 13.641wxwxwx3wx--1020.1 997.6----wx
1999-07-27 18:00:00 21.1--- 7.6 13.642wxwxwx2wx--1020.0 997.5 0.0---wx
1999-07-27 19:00:00 19.3--- 8.3 13.249wxwxwx2wx--1020.4 997.7----wx
1999-07-27 20:00:00 18.4--- 8.0 12.751wxwxwx2wx--1020.8 998.1----wx
1999-07-27 21:00:00 17.8--- 7.9 12.452wxwxwx2wx--1021.3 998.5----wx
1999-07-27 22:00:00 16.8--- 8.4 12.258wxwxwx2wx--1021.4 998.5----wx
1999-07-27 23:00:00 15.4--- 9.5 12.168wxwxwx3wx--1021.4 998.4----wx

 

Źródłem pochodzenia danych jest Instytut Meteorologii i Gospodarki Wodnej – Państwowy Instytut Badawczy. Dane Instytutu Meteorologii i Gospodarki Wodnej – Państwowego Instytutu Badawczego zostały przetworzone.

Dane źródłowe można odnaleźć na stronie https://dane.imgw.pl